sensor_id;sensor_type;location;lat;lon;timestamp;P1;durP1;ratioP1;P2;durP2;ratioP2
11269;SDS011;5692;48.956;9.200;2023-06-04T00:00:42;228.23;;;217.30;;
11269;SDS011;5692;48.956;9.200;2023-06-04T00:03:08;221.13;;;210.53;;
11269;SDS011;5692;48.956;9.200;2023-06-04T00:05:34;234.07;;;222.88;;
11269;SDS011;5692;48.956;9.200;2023-06-04T00:08:00;227.40;;;216.50;;
11269;SDS011;5692;48.956;9.200;2023-06-04T00:10:26;222.85;;;212.20;;
11269;SDS011;5692;48.956;9.200;2023-06-04T00:12:52;223.88;;;213.18;;
11269;SDS011;5692;48.956;9.200;2023-06-04T00:15:18;231.30;;;220.25;;
11269;SDS011;5692;48.956;9.200;2023-06-04T00:17:44;222.05;;;211.43;;
11269;SDS011;5692;48.956;9.200;2023-06-04T00:20:10;234.95;;;223.70;;
11269;SDS011;5692;48.956;9.200;2023-06-04T00:22:37;235.45;;;224.18;;
11269;SDS011;5692;48.956;9.200;2023-06-04T00:25:03;233.20;;;222.05;;
11269;SDS011;5692;48.956;9.200;2023-06-04T00:27:29;229.25;;;218.30;;
11269;SDS011;5692;48.956;9.200;2023-06-04T00:29:55;237.05;;;225.75;;
11269;SDS011;5692;48.956;9.200;2023-06-04T00:32:21;231.52;;;220.45;;
11269;SDS011;5692;48.956;9.200;2023-06-04T00:34:54;231.63;;;220.52;;
11269;SDS011;5692;48.956;9.200;2023-06-04T00:37:22;221.27;;;210.68;;
11269;SDS011;5692;48.956;9.200;2023-06-04T00:39:48;219.95;;;209.45;;
11269;SDS011;5692;48.956;9.200;2023-06-04T00:42:15;223.32;;;212.63;;
11269;SDS011;5692;48.956;9.200;2023-06-04T00:44:41;230.00;;;219.00;;
11269;SDS011;5692;48.956;9.200;2023-06-04T00:47:10;228.10;;;217.20;;
11269;SDS011;5692;48.956;9.200;2023-06-04T00:49:37;228.82;;;217.88;;
11269;SDS011;5692;48.956;9.200;2023-06-04T00:52:03;225.70;;;214.90;;
11269;SDS011;5692;48.956;9.200;2023-06-04T00:54:30;224.07;;;213.38;;
11269;SDS011;5692;48.956;9.200;2023-06-04T00:56:58;224.18;;;213.48;;
11269;SDS011;5692;48.956;9.200;2023-06-04T00:59:25;219.45;;;208.95;;
11269;SDS011;5692;48.956;9.200;2023-06-04T01:04:24;214.98;;;204.68;;
11269;SDS011;5692;48.956;9.200;2023-06-04T01:06:51;225.60;;;214.80;;
11269;SDS011;5692;48.956;9.200;2023-06-04T01:09:19;231.93;;;220.82;;
11269;SDS011;5692;48.956;9.200;2023-06-04T01:11:45;209.68;;;199.65;;
11269;SDS011;5692;48.956;9.200;2023-06-04T01:14:14;224.02;;;213.30;;
11269;SDS011;5692;48.956;9.200;2023-06-04T01:22:03;228.48;;;217.52;;
11269;SDS011;5692;48.956;9.200;2023-06-04T01:24:31;220.00;;;209.48;;
11269;SDS011;5692;48.956;9.200;2023-06-04T01:27:01;214.30;;;204.05;;
11269;SDS011;5692;48.956;9.200;2023-06-04T01:29:28;219.48;;;208.98;;
11269;SDS011;5692;48.956;9.200;2023-06-04T01:31:55;214.65;;;204.38;;
11269;SDS011;5692;48.956;9.200;2023-06-04T01:34:22;223.82;;;213.10;;
11269;SDS011;5692;48.956;9.200;2023-06-04T01:36:48;219.85;;;209.35;;
11269;SDS011;5692;48.956;9.200;2023-06-04T01:39:14;217.32;;;206.93;;
11269;SDS011;5692;48.956;9.200;2023-06-04T01:41:40;213.02;;;202.82;;
11269;SDS011;5692;48.956;9.200;2023-06-04T01:44:06;211.75;;;201.60;;
11269;SDS011;5692;48.956;9.200;2023-06-04T01:46:32;214.77;;;204.50;;
11269;SDS011;5692;48.956;9.200;2023-06-04T01:48:58;213.70;;;203.47;;
11269;SDS011;5692;48.956;9.200;2023-06-04T01:51:24;218.85;;;208.38;;
11269;SDS011;5692;48.956;9.200;2023-06-04T01:53:51;223.00;;;212.32;;
11269;SDS011;5692;48.956;9.200;2023-06-04T01:56:17;212.90;;;202.70;;
11269;SDS011;5692;48.956;9.200;2023-06-04T01:58:43;206.25;;;196.38;;
11269;SDS011;5692;48.956;9.200;2023-06-04T02:01:09;217.98;;;207.55;;
11269;SDS011;5692;48.956;9.200;2023-06-04T02:03:35;208.57;;;198.57;;
11269;SDS011;5692;48.956;9.200;2023-06-04T02:06:04;195.82;;;186.45;;
11269;SDS011;5692;48.956;9.200;2023-06-04T02:08:33;202.38;;;192.68;;
11269;SDS011;5692;48.956;9.200;2023-06-04T02:10:59;213.05;;;202.85;;
11269;SDS011;5692;48.956;9.200;2023-06-04T02:13:25;214.10;;;203.88;;
11269;SDS011;5692;48.956;9.200;2023-06-04T02:15:51;219.30;;;208.80;;
11269;SDS011;5692;48.956;9.200;2023-06-04T02:18:18;212.40;;;202.20;;
11269;SDS011;5692;48.956;9.200;2023-06-04T02:20:46;211.27;;;201.18;;
11269;SDS011;5692;48.956;9.200;2023-06-04T02:23:15;200.68;;;191.07;;
11269;SDS011;5692;48.956;9.200;2023-06-04T02:25:42;207.63;;;197.70;;
11269;SDS011;5692;48.956;9.200;2023-06-04T02:28:12;201.30;;;191.65;;
11269;SDS011;5692;48.956;9.200;2023-06-04T02:30:38;206.25;;;196.40;;
11269;SDS011;5692;48.956;9.200;2023-06-04T02:33:07;212.65;;;202.48;;
11269;SDS011;5692;48.956;9.200;2023-06-04T02:35:35;207.43;;;197.48;;
11269;SDS011;5692;48.956;9.200;2023-06-04T02:38:01;213.07;;;202.88;;
11269;SDS011;5692;48.956;9.200;2023-06-04T02:40:29;208.10;;;198.13;;
11269;SDS011;5692;48.956;9.200;2023-06-04T02:42:58;212.18;;;202.02;;
11269;SDS011;5692;48.956;9.200;2023-06-04T02:45:24;217.73;;;207.30;;
11269;SDS011;5692;48.956;9.200;2023-06-04T02:47:50;198.13;;;188.65;;
11269;SDS011;5692;48.956;9.200;2023-06-04T02:50:17;207.48;;;197.55;;
11269;SDS011;5692;48.956;9.200;2023-06-04T02:52:43;211.10;;;201.00;;
11269;SDS011;5692;48.956;9.200;2023-06-04T02:55:09;223.15;;;212.48;;
11269;SDS011;5692;48.956;9.200;2023-06-04T02:57:41;213.55;;;203.35;;
11269;SDS011;5692;48.956;9.200;2023-06-04T03:00:10;209.07;;;199.07;;
11269;SDS011;5692;48.956;9.200;2023-06-04T03:02:43;218.40;;;207.95;;
11269;SDS011;5692;48.956;9.200;2023-06-04T03:05:10;214.95;;;204.65;;
11269;SDS011;5692;48.956;9.200;2023-06-04T03:07:37;220.90;;;210.35;;
11269;SDS011;5692;48.956;9.200;2023-06-04T03:10:03;219.48;;;208.98;;
11269;SDS011;5692;48.956;9.200;2023-06-04T03:12:30;220.18;;;209.68;;
11269;SDS011;5692;48.956;9.200;2023-06-04T03:14:58;224.02;;;213.32;;
11269;SDS011;5692;48.956;9.200;2023-06-04T03:17:25;211.55;;;201.45;;
11269;SDS011;5692;48.956;9.200;2023-06-04T03:19:51;220.98;;;210.40;;
11269;SDS011;5692;48.956;9.200;2023-06-04T03:22:17;220.05;;;209.55;;
11269;SDS011;5692;48.956;9.200;2023-06-04T03:24:43;231.02;;;219.98;;
11269;SDS011;5692;48.956;9.200;2023-06-04T03:27:10;223.25;;;212.55;;
11269;SDS011;5692;48.956;9.200;2023-06-04T03:29:36;208.80;;;198.80;;
11269;SDS011;5692;48.956;9.200;2023-06-04T03:32:02;216.80;;;206.43;;
11269;SDS011;5692;48.956;9.200;2023-06-04T03:34:29;209.23;;;199.23;;
11269;SDS011;5692;48.956;9.200;2023-06-04T03:37:00;207.45;;;197.52;;
11269;SDS011;5692;48.956;9.200;2023-06-04T03:39:26;221.73;;;211.13;;
11269;SDS011;5692;48.956;9.200;2023-06-04T03:41:54;218.50;;;208.05;;
11269;SDS011;5692;48.956;9.200;2023-06-04T03:44:22;214.95;;;204.68;;
11269;SDS011;5692;48.956;9.200;2023-06-04T03:46:51;216.27;;;205.93;;
11269;SDS011;5692;48.956;9.200;2023-06-04T03:49:17;209.88;;;199.85;;
11269;SDS011;5692;48.956;9.200;2023-06-04T03:51:44;212.93;;;202.75;;
11269;SDS011;5692;48.956;9.200;2023-06-04T03:54:13;212.05;;;201.90;;
11269;SDS011;5692;48.956;9.200;2023-06-04T03:56:42;212.88;;;202.68;;
11269;SDS011;5692;48.956;9.200;2023-06-04T03:59:08;207.40;;;197.48;;
11269;SDS011;5692;48.956;9.200;2023-06-04T04:01:37;202.80;;;193.10;;
11269;SDS011;5692;48.956;9.200;2023-06-04T04:04:04;210.07;;;200.02;;
11269;SDS011;5692;48.956;9.200;2023-06-04T04:06:30;208.40;;;198.40;;
11269;SDS011;5692;48.956;9.200;2023-06-04T04:08:58;216.35;;;206.00;;
11269;SDS011;5692;48.956;9.200;2023-06-04T04:11:25;225.05;;;214.27;;
11269;SDS011;5692;48.956;9.200;2023-06-04T04:13:54;215.13;;;204.82;;
11269;SDS011;5692;48.956;9.200;2023-06-04T04:16:20;219.65;;;209.15;;
11269;SDS011;5692;48.956;9.200;2023-06-04T04:18:46;216.60;;;206.20;;
11269;SDS011;5692;48.956;9.200;2023-06-04T04:21:12;221.75;;;211.15;;
11269;SDS011;5692;48.956;9.200;2023-06-04T04:23:38;218.23;;;207.77;;
11269;SDS011;5692;48.956;9.200;2023-06-04T04:26:08;226.80;;;215.95;;
11269;SDS011;5692;48.956;9.200;2023-06-04T04:28:35;220.23;;;209.70;;
11269;SDS011;5692;48.956;9.200;2023-06-04T04:31:01;214.18;;;203.93;;
11269;SDS011;5692;48.956;9.200;2023-06-04T04:33:27;213.90;;;203.65;;
11269;SDS011;5692;48.956;9.200;2023-06-04T04:36:04;208.73;;;198.73;;
11269;SDS011;5692;48.956;9.200;2023-06-04T04:38:33;216.77;;;206.40;;
11269;SDS011;5692;48.956;9.200;2023-06-04T04:40:59;219.80;;;209.30;;
11269;SDS011;5692;48.956;9.200;2023-06-04T04:43:29;218.13;;;207.73;;
11269;SDS011;5692;48.956;9.200;2023-06-04T04:45:55;224.43;;;213.73;;
11269;SDS011;5692;48.956;9.200;2023-06-04T04:48:21;217.85;;;207.45;;
11269;SDS011;5692;48.956;9.200;2023-06-04T04:50:47;221.50;;;210.90;;
11269;SDS011;5692;48.956;9.200;2023-06-04T04:53:14;223.98;;;213.27;;
11269;SDS011;5692;48.956;9.200;2023-06-04T04:55:40;216.95;;;206.57;;
11269;SDS011;5692;48.956;9.200;2023-06-04T04:58:06;220.25;;;209.70;;
11269;SDS011;5692;48.956;9.200;2023-06-04T05:00:34;212.07;;;201.93;;
11269;SDS011;5692;48.956;9.200;2023-06-04T05:03:03;221.83;;;211.23;;
11269;SDS011;5692;48.956;9.200;2023-06-04T05:05:31;206.70;;;196.80;;
11269;SDS011;5692;48.956;9.200;2023-06-04T05:07:57;224.52;;;213.77;;
11269;SDS011;5692;48.956;9.200;2023-06-04T05:10:23;218.07;;;207.68;;
11269;SDS011;5692;48.956;9.200;2023-06-04T05:12:53;231.57;;;220.48;;
11269;SDS011;5692;48.956;9.200;2023-06-04T05:15:19;227.93;;;217.05;;
11269;SDS011;5692;48.956;9.200;2023-06-04T05:17:45;226.90;;;216.05;;
11269;SDS011;5692;48.956;9.200;2023-06-04T05:20:14;225.18;;;214.40;;
11269;SDS011;5692;48.956;9.200;2023-06-04T05:22:41;213.13;;;202.93;;
11269;SDS011;5692;48.956;9.200;2023-06-04T05:25:08;220.48;;;209.93;;
11269;SDS011;5692;48.956;9.200;2023-06-04T05:27:34;222.93;;;212.25;;
11269;SDS011;5692;48.956;9.200;2023-06-04T05:30:01;236.82;;;225.50;;
11269;SDS011;5692;48.956;9.200;2023-06-04T05:32:27;218.77;;;208.30;;
11269;SDS011;5692;48.956;9.200;2023-06-04T05:34:56;233.50;;;222.30;;
11269;SDS011;5692;48.956;9.200;2023-06-04T05:37:23;231.93;;;220.82;;
11269;SDS011;5692;48.956;9.200;2023-06-04T05:39:55;235.63;;;224.35;;
11269;SDS011;5692;48.956;9.200;2023-06-04T05:42:22;228.38;;;217.48;;
11269;SDS011;5692;48.956;9.200;2023-06-04T05:44:48;218.20;;;207.75;;
11269;SDS011;5692;48.956;9.200;2023-06-04T05:47:15;221.90;;;211.30;;
11269;SDS011;5692;48.956;9.200;2023-06-04T05:49:44;239.05;;;227.65;;
11269;SDS011;5692;48.956;9.200;2023-06-04T05:52:10;235.68;;;224.43;;
11269;SDS011;5692;48.956;9.200;2023-06-04T05:54:39;222.85;;;212.20;;
11269;SDS011;5692;48.956;9.200;2023-06-04T05:57:08;232.30;;;221.18;;
11269;SDS011;5692;48.956;9.200;2023-06-04T05:59:34;226.05;;;215.25;;
11269;SDS011;5692;48.956;9.200;2023-06-04T06:02:00;221.18;;;210.57;;
11269;SDS011;5692;48.956;9.200;2023-06-04T06:04:27;223.10;;;212.40;;
11269;SDS011;5692;48.956;9.200;2023-06-04T06:06:53;234.00;;;222.80;;
11269;SDS011;5692;48.956;9.200;2023-06-04T06:09:20;238.02;;;226.65;;
11269;SDS011;5692;48.956;9.200;2023-06-04T06:11:48;252.93;;;240.82;;
11269;SDS011;5692;48.956;9.200;2023-06-04T06:14:15;239.15;;;227.75;;
11269;SDS011;5692;48.956;9.200;2023-06-04T06:16:43;241.63;;;230.07;;
11269;SDS011;5692;48.956;9.200;2023-06-04T06:19:15;240.30;;;228.80;;
11269;SDS011;5692;48.956;9.200;2023-06-04T06:21:42;241.43;;;229.90;;
11269;SDS011;5692;48.956;9.200;2023-06-04T06:24:10;234.25;;;223.05;;
11269;SDS011;5692;48.956;9.200;2023-06-04T06:26:36;239.43;;;227.98;;
11269;SDS011;5692;48.956;9.200;2023-06-04T06:29:02;244.27;;;232.57;;
11269;SDS011;5692;48.956;9.200;2023-06-04T06:31:28;258.27;;;245.93;;
11269;SDS011;5692;48.956;9.200;2023-06-04T06:33:54;260.63;;;248.18;;
11269;SDS011;5692;48.956;9.200;2023-06-04T06:36:20;246.75;;;234.98;;
11269;SDS011;5692;48.956;9.200;2023-06-04T06:38:46;239.98;;;228.48;;
11269;SDS011;5692;48.956;9.200;2023-06-04T06:41:15;245.88;;;234.13;;
11269;SDS011;5692;48.956;9.200;2023-06-04T06:43:41;244.23;;;232.52;;
11269;SDS011;5692;48.956;9.200;2023-06-04T06:46:07;255.43;;;243.23;;
11269;SDS011;5692;48.956;9.200;2023-06-04T06:48:36;263.25;;;250.68;;
11269;SDS011;5692;48.956;9.200;2023-06-04T06:51:02;246.60;;;234.80;;
11269;SDS011;5692;48.956;9.200;2023-06-04T06:53:28;255.88;;;243.63;;
11269;SDS011;5692;48.956;9.200;2023-06-04T06:55:54;245.90;;;234.13;;
11269;SDS011;5692;48.956;9.200;2023-06-04T06:58:21;238.82;;;227.43;;
11269;SDS011;5692;48.956;9.200;2023-06-04T07:00:48;256.70;;;244.43;;
11269;SDS011;5692;48.956;9.200;2023-06-04T07:03:14;236.52;;;225.20;;
11269;SDS011;5692;48.956;9.200;2023-06-04T07:05:44;216.18;;;205.82;;
11269;SDS011;5692;48.956;9.200;2023-06-04T07:08:13;235.35;;;224.10;;
11269;SDS011;5692;48.956;9.200;2023-06-04T07:10:39;245.27;;;233.55;;
11269;SDS011;5692;48.956;9.200;2023-06-04T07:13:05;226.25;;;215.43;;
11269;SDS011;5692;48.956;9.200;2023-06-04T07:15:31;241.02;;;229.48;;
11269;SDS011;5692;48.956;9.200;2023-06-04T07:17:57;248.68;;;236.77;;
11269;SDS011;5692;48.956;9.200;2023-06-04T07:20:23;224.55;;;213.80;;
11269;SDS011;5692;48.956;9.200;2023-06-04T07:22:49;236.45;;;225.15;;
11269;SDS011;5692;48.956;9.200;2023-06-04T07:25:15;228.75;;;217.85;;
11269;SDS011;5692;48.956;9.200;2023-06-04T07:27:41;246.75;;;234.95;;
11269;SDS011;5692;48.956;9.200;2023-06-04T07:30:08;221.27;;;210.70;;
11269;SDS011;5692;48.956;9.200;2023-06-04T07:32:34;224.57;;;213.82;;
11269;SDS011;5692;48.956;9.200;2023-06-04T07:35:01;221.75;;;211.15;;
11269;SDS011;5692;48.956;9.200;2023-06-04T07:37:27;226.02;;;215.23;;
11269;SDS011;5692;48.956;9.200;2023-06-04T07:39:53;234.40;;;223.20;;
11269;SDS011;5692;48.956;9.200;2023-06-04T07:42:19;231.93;;;220.82;;
11269;SDS011;5692;48.956;9.200;2023-06-04T07:44:45;232.65;;;221.55;;
11269;SDS011;5692;48.956;9.200;2023-06-04T07:47:11;236.00;;;224.70;;
11269;SDS011;5692;48.956;9.200;2023-06-04T07:49:38;240.65;;;229.13;;
11269;SDS011;5692;48.956;9.200;2023-06-04T07:52:04;228.80;;;217.88;;
11269;SDS011;5692;48.956;9.200;2023-06-04T07:54:30;235.82;;;224.52;;
11269;SDS011;5692;48.956;9.200;2023-06-04T07:56:59;229.40;;;218.43;;
11269;SDS011;5692;48.956;9.200;2023-06-04T07:59:25;225.55;;;214.75;;
11269;SDS011;5692;48.956;9.200;2023-06-04T08:01:54;210.73;;;200.65;;
11269;SDS011;5692;48.956;9.200;2023-06-04T08:04:20;230.07;;;219.07;;
11269;SDS011;5692;48.956;9.200;2023-06-04T08:06:46;226.52;;;215.68;;
11269;SDS011;5692;48.956;9.200;2023-06-04T08:09:12;218.27;;;207.82;;
11269;SDS011;5692;48.956;9.200;2023-06-04T08:11:39;221.00;;;210.43;;
11269;SDS011;5692;48.956;9.200;2023-06-04T08:14:14;236.98;;;225.65;;
11269;SDS011;5692;48.956;9.200;2023-06-04T08:16:40;224.43;;;213.68;;
11269;SDS011;5692;48.956;9.200;2023-06-04T08:19:06;236.38;;;225.07;;
11269;SDS011;5692;48.956;9.200;2023-06-04T08:21:35;233.40;;;222.23;;
11269;SDS011;5692;48.956;9.200;2023-06-04T08:24:03;233.48;;;222.32;;
11269;SDS011;5692;48.956;9.200;2023-06-04T08:26:29;220.23;;;209.70;;
11269;SDS011;5692;48.956;9.200;2023-06-04T08:28:56;233.85;;;222.65;;
11269;SDS011;5692;48.956;9.200;2023-06-04T08:31:22;240.77;;;229.25;;
11269;SDS011;5692;48.956;9.200;2023-06-04T08:33:48;243.00;;;231.37;;
11269;SDS011;5692;48.956;9.200;2023-06-04T08:36:14;240.70;;;229.20;;
11269;SDS011;5692;48.956;9.200;2023-06-04T08:38:43;224.00;;;213.30;;
11269;SDS011;5692;48.956;9.200;2023-06-04T08:41:13;237.80;;;226.40;;
11269;SDS011;5692;48.956;9.200;2023-06-04T08:43:41;231.43;;;220.37;;
11269;SDS011;5692;48.956;9.200;2023-06-04T08:46:11;212.87;;;202.67;;
11269;SDS011;5692;48.956;9.200;2023-06-04T08:48:38;228.13;;;217.20;;
11269;SDS011;5692;48.956;9.200;2023-06-04T08:51:05;218.03;;;207.63;;
11269;SDS011;5692;48.956;9.200;2023-06-04T08:53:33;237.63;;;226.27;;
11269;SDS011;5692;48.956;9.200;2023-06-04T08:56:01;232.87;;;221.73;;
11269;SDS011;5692;48.956;9.200;2023-06-04T08:58:28;234.53;;;223.33;;
11269;SDS011;5692;48.956;9.200;2023-06-04T09:00:56;233.67;;;222.50;;
11269;SDS011;5692;48.956;9.200;2023-06-04T09:03:30;218.83;;;208.37;;
11269;SDS011;5692;48.956;9.200;2023-06-04T09:06:01;232.77;;;221.63;;
11269;SDS011;5692;48.956;9.200;2023-06-04T09:08:31;231.43;;;220.37;;
11269;SDS011;5692;48.956;9.200;2023-06-04T09:11:00;220.03;;;209.50;;
11269;SDS011;5692;48.956;9.200;2023-06-04T09:13:30;233.37;;;222.20;;
11269;SDS011;5692;48.956;9.200;2023-06-04T09:18:26;220.93;;;210.37;;
11269;SDS011;5692;48.956;9.200;2023-06-04T09:21:02;233.90;;;222.70;;
11269;SDS011;5692;48.956;9.200;2023-06-04T09:23:28;244.27;;;232.60;;
11269;SDS011;5692;48.956;9.200;2023-06-04T09:25:55;250.27;;;238.30;;
11269;SDS011;5692;48.956;9.200;2023-06-04T09:28:21;268.17;;;255.37;;
11269;SDS011;5692;48.956;9.200;2023-06-04T09:30:51;266.63;;;253.90;;
11269;SDS011;5692;48.956;9.200;2023-06-04T09:33:17;257.87;;;245.53;;
11269;SDS011;5692;48.956;9.200;2023-06-04T09:35:52;168.53;;;160.47;;
11269;SDS011;5692;48.956;9.200;2023-06-04T09:38:19;10.50;;;2.00;;
11269;SDS011;5692;48.956;9.200;2023-06-04T09:40:46;9.47;;;3.60;;
11269;SDS011;5692;48.956;9.200;2023-06-04T09:43:21;235.00;;;223.77;;
11269;SDS011;5692;48.956;9.200;2023-06-04T09:45:47;188.07;;;179.07;;
11269;SDS011;5692;48.956;9.200;2023-06-04T09:48:22;191.03;;;181.90;;
11269;SDS011;5692;48.956;9.200;2023-06-04T09:50:51;194.87;;;185.53;;
11269;SDS011;5692;48.956;9.200;2023-06-04T09:53:26;195.50;;;186.13;;
11269;SDS011;5692;48.956;9.200;2023-06-04T09:56:13;201.63;;;191.97;;
11269;SDS011;5692;48.956;9.200;2023-06-04T09:58:39;210.47;;;200.37;;
11269;SDS011;5692;48.956;9.200;2023-06-04T10:01:06;211.53;;;201.40;;
11269;SDS011;5692;48.956;9.200;2023-06-04T10:03:33;208.57;;;198.57;;
11269;SDS011;5692;48.956;9.200;2023-06-04T10:06:01;219.40;;;208.90;;
11269;SDS011;5692;48.956;9.200;2023-06-04T10:08:29;177.23;;;168.73;;
11269;SDS011;5692;48.956;9.200;2023-06-04T10:10:56;167.70;;;159.70;;
11269;SDS011;5692;48.956;9.200;2023-06-04T10:13:23;182.87;;;174.10;;
11269;SDS011;5692;48.956;9.200;2023-06-04T10:15:50;195.67;;;186.30;;
11269;SDS011;5692;48.956;9.200;2023-06-04T10:18:16;215.93;;;205.63;;
11269;SDS011;5692;48.956;9.200;2023-06-04T10:20:42;222.47;;;211.83;;
11269;SDS011;5692;48.956;9.200;2023-06-04T10:23:08;207.53;;;197.63;;
11269;SDS011;5692;48.956;9.200;2023-06-04T10:25:35;207.77;;;197.87;;
11269;SDS011;5692;48.956;9.200;2023-06-04T10:28:02;211.30;;;201.20;;
11269;SDS011;5692;48.956;9.200;2023-06-04T10:30:31;196.30;;;186.90;;
11269;SDS011;5692;48.956;9.200;2023-06-04T10:32:58;205.73;;;195.87;;
11269;SDS011;5692;48.956;9.200;2023-06-04T10:35:31;228.53;;;217.60;;
11269;SDS011;5692;48.956;9.200;2023-06-04T10:38:10;215.80;;;205.50;;
11269;SDS011;5692;48.956;9.200;2023-06-04T10:40:39;208.67;;;198.67;;
11269;SDS011;5692;48.956;9.200;2023-06-04T10:45:31;203.87;;;194.10;;
11269;SDS011;5692;48.956;9.200;2023-06-04T10:48:01;205.50;;;195.70;;
11269;SDS011;5692;48.956;9.200;2023-06-04T10:50:27;197.33;;;187.90;;
11269;SDS011;5692;48.956;9.200;2023-06-04T10:52:54;191.23;;;182.07;;
11269;SDS011;5692;48.956;9.200;2023-06-04T10:55:22;219.63;;;209.13;;
11269;SDS011;5692;48.956;9.200;2023-06-04T10:57:52;246.40;;;234.60;;
11269;SDS011;5692;48.956;9.200;2023-06-04T11:00:18;220.70;;;210.13;;
11269;SDS011;5692;48.956;9.200;2023-06-04T11:05:37;198.17;;;188.67;;
11269;SDS011;5692;48.956;9.200;2023-06-04T11:08:07;203.40;;;193.70;;
11269;SDS011;5692;48.956;9.200;2023-06-04T11:10:36;202.90;;;193.20;;
11269;SDS011;5692;48.956;9.200;2023-06-04T11:13:03;204.43;;;194.63;;
11269;SDS011;5692;48.956;9.200;2023-06-04T11:15:42;205.53;;;195.70;;
11269;SDS011;5692;48.956;9.200;2023-06-04T11:18:18;207.13;;;197.20;;
11269;SDS011;5692;48.956;9.200;2023-06-04T11:20:46;202.33;;;192.63;;
11269;SDS011;5692;48.956;9.200;2023-06-04T11:23:13;214.87;;;204.57;;
11269;SDS011;5692;48.956;9.200;2023-06-04T11:25:43;204.53;;;194.73;;
11269;SDS011;5692;48.956;9.200;2023-06-04T11:28:15;202.40;;;192.70;;
11269;SDS011;5692;48.956;9.200;2023-06-04T11:30:43;211.30;;;201.20;;
11269;SDS011;5692;48.956;9.200;2023-06-04T11:33:09;206.93;;;197.03;;
11269;SDS011;5692;48.956;9.200;2023-06-04T11:35:44;198.30;;;188.80;;
11269;SDS011;5692;48.956;9.200;2023-06-04T11:38:10;204.23;;;194.47;;
11269;SDS011;5692;48.956;9.200;2023-06-04T11:40:39;205.03;;;195.20;;
11269;SDS011;5692;48.956;9.200;2023-06-04T11:43:09;211.90;;;201.77;;
11269;SDS011;5692;48.956;9.200;2023-06-04T11:45:35;221.53;;;210.93;;
11269;SDS011;5692;48.956;9.200;2023-06-04T11:48:10;222.30;;;211.67;;
11269;SDS011;5692;48.956;9.200;2023-06-04T11:50:37;209.03;;;199.03;;
11269;SDS011;5692;48.956;9.200;2023-06-04T11:53:06;214.00;;;203.77;;
11269;SDS011;5692;48.956;9.200;2023-06-04T11:55:33;208.67;;;198.67;;
11269;SDS011;5692;48.956;9.200;2023-06-04T11:57:59;217.00;;;206.60;;
11269;SDS011;5692;48.956;9.200;2023-06-04T12:00:25;219.97;;;209.43;;
11269;SDS011;5692;48.956;9.200;2023-06-04T12:02:54;210.77;;;200.67;;
11269;SDS011;5692;48.956;9.200;2023-06-04T12:05:21;218.30;;;207.87;;
11269;SDS011;5692;48.956;9.200;2023-06-04T12:07:51;220.67;;;210.10;;
11269;SDS011;5692;48.956;9.200;2023-06-04T12:10:20;214.13;;;203.90;;
11269;SDS011;5692;48.956;9.200;2023-06-04T12:12:54;224.47;;;213.73;;
11269;SDS011;5692;48.956;9.200;2023-06-04T12:15:21;208.23;;;198.27;;
11269;SDS011;5692;48.956;9.200;2023-06-04T12:17:51;217.33;;;206.93;;
11269;SDS011;5692;48.956;9.200;2023-06-04T12:20:29;218.20;;;207.77;;
11269;SDS011;5692;48.956;9.200;2023-06-04T12:22:57;212.37;;;202.20;;
11269;SDS011;5692;48.956;9.200;2023-06-04T12:25:23;211.03;;;200.93;;
11269;SDS011;5692;48.956;9.200;2023-06-04T12:27:51;198.07;;;188.57;;
11269;SDS011;5692;48.956;9.200;2023-06-04T12:30:17;212.83;;;202.63;;
11269;SDS011;5692;48.956;9.200;2023-06-04T12:32:43;218.47;;;208.00;;
11269;SDS011;5692;48.956;9.200;2023-06-04T12:35:10;209.43;;;199.40;;
11269;SDS011;5692;48.956;9.200;2023-06-04T12:38:01;213.97;;;203.73;;
11269;SDS011;5692;48.956;9.200;2023-06-04T12:40:28;208.10;;;198.10;;
11269;SDS011;5692;48.956;9.200;2023-06-04T12:42:54;218.37;;;207.93;;
11269;SDS011;5692;48.956;9.200;2023-06-04T12:45:20;215.43;;;205.13;;
11269;SDS011;5692;48.956;9.200;2023-06-04T12:47:46;217.50;;;207.10;;
11269;SDS011;5692;48.956;9.200;2023-06-04T12:50:12;212.17;;;202.00;;
11269;SDS011;5692;48.956;9.200;2023-06-04T12:52:46;217.73;;;207.30;;
11269;SDS011;5692;48.956;9.200;2023-06-04T12:55:12;222.60;;;211.93;;
11269;SDS011;5692;48.956;9.200;2023-06-04T12:57:40;225.73;;;214.93;;
11269;SDS011;5692;48.956;9.200;2023-06-04T13:00:09;222.37;;;211.77;;
11269;SDS011;5692;48.956;9.200;2023-06-04T13:02:35;216.07;;;205.73;;
11269;SDS011;5692;48.956;9.200;2023-06-04T13:05:01;210.90;;;200.80;;
11269;SDS011;5692;48.956;9.200;2023-06-04T13:07:28;227.83;;;216.93;;
11269;SDS011;5692;48.956;9.200;2023-06-04T13:09:54;217.63;;;207.23;;
11269;SDS011;5692;48.956;9.200;2023-06-04T13:12:20;224.07;;;213.33;;
11269;SDS011;5692;48.956;9.200;2023-06-04T13:14:46;219.57;;;209.07;;
11269;SDS011;5692;48.956;9.200;2023-06-04T13:17:13;204.80;;;195.00;;
11269;SDS011;5692;48.956;9.200;2023-06-04T13:19:39;208.40;;;198.40;;
11269;SDS011;5692;48.956;9.200;2023-06-04T13:22:05;212.10;;;201.97;;
11269;SDS011;5692;48.956;9.200;2023-06-04T13:24:31;218.30;;;207.87;;
11269;SDS011;5692;48.956;9.200;2023-06-04T13:27:00;217.03;;;206.67;;
11269;SDS011;5692;48.956;9.200;2023-06-04T13:29:26;215.50;;;205.20;;
11269;SDS011;5692;48.956;9.200;2023-06-04T13:31:52;213.67;;;203.47;;
11269;SDS011;5692;48.956;9.200;2023-06-04T13:34:19;208.53;;;198.57;;
11269;SDS011;5692;48.956;9.200;2023-06-04T13:36:48;219.70;;;209.20;;
11269;SDS011;5692;48.956;9.200;2023-06-04T13:39:16;215.00;;;204.70;;
11269;SDS011;5692;48.956;9.200;2023-06-04T13:41:43;224.30;;;213.57;;
11269;SDS011;5692;48.956;9.200;2023-06-04T13:44:09;205.63;;;195.83;;
11269;SDS011;5692;48.956;9.200;2023-06-04T13:46:35;212.63;;;202.43;;
11269;SDS011;5692;48.956;9.200;2023-06-04T13:49:01;210.93;;;200.83;;
11269;SDS011;5692;48.956;9.200;2023-06-04T13:51:28;207.17;;;197.23;;
11269;SDS011;5692;48.956;9.200;2023-06-04T13:53:55;215.07;;;204.77;;
11269;SDS011;5692;48.956;9.200;2023-06-04T13:56:24;272.20;;;259.20;;
11269;SDS011;5692;48.956;9.200;2023-06-04T13:58:51;279.63;;;266.27;;
11269;SDS011;5692;48.956;9.200;2023-06-04T14:01:17;254.23;;;242.07;;
11269;SDS011;5692;48.956;9.200;2023-06-04T14:03:45;249.83;;;237.90;;
11269;SDS011;5692;48.956;9.200;2023-06-04T14:06:11;227.20;;;216.33;;
11269;SDS011;5692;48.956;9.200;2023-06-04T14:08:37;235.83;;;224.57;;
11269;SDS011;5692;48.956;9.200;2023-06-04T14:11:03;282.53;;;269.03;;
11269;SDS011;5692;48.956;9.200;2023-06-04T14:13:29;265.23;;;252.57;;
11269;SDS011;5692;48.956;9.200;2023-06-04T14:15:55;231.27;;;220.20;;
11269;SDS011;5692;48.956;9.200;2023-06-04T14:18:21;226.90;;;216.03;;
11269;SDS011;5692;48.956;9.200;2023-06-04T14:20:47;236.57;;;225.27;;
11269;SDS011;5692;48.956;9.200;2023-06-04T14:23:13;239.10;;;227.67;;
11269;SDS011;5692;48.956;9.200;2023-06-04T14:25:41;258.27;;;245.93;;